sensor_id;sensor_type;location;lat;lon;timestamp;pressure;altitude;pressure_sealevel;temperature;humidity
39141;BME280;24875;48.436;10.298;2022-08-03T00:00:53;96373.72;;;18.99;100.00
39141;BME280;24875;48.436;10.298;2022-08-03T00:03:20;96362.03;;;18.83;100.00
39141;BME280;24875;48.436;10.298;2022-08-03T00:05:46;96370.69;;;18.78;100.00
39141;BME280;24875;48.436;10.298;2022-08-03T00:08:13;96366.53;;;18.82;100.00
39141;BME280;24875;48.436;10.298;2022-08-03T00:10:39;96359.56;;;18.81;100.00
39141;BME280;24875;48.436;10.298;2022-08-03T00:13:06;96357.19;;;18.73;100.00
39141;BME280;24875;48.436;10.298;2022-08-03T00:15:34;96362.69;;;18.60;100.00
39141;BME280;24875;48.436;10.298;2022-08-03T00:18:00;96359.88;;;18.55;100.00
39141;BME280;24875;48.436;10.298;2022-08-03T00:20:27;96361.44;;;18.63;100.00
39141;BME280;24875;48.436;10.298;2022-08-03T00:22:53;96360.41;;;18.82;100.00
39141;BME280;24875;48.436;10.298;2022-08-03T00:25:20;96359.16;;;18.66;100.00
39141;BME280;24875;48.436;10.298;2022-08-03T00:27:46;96361.28;;;18.76;100.00
39141;BME280;24875;48.436;10.298;2022-08-03T00:30:13;96353.28;;;18.76;100.00
39141;BME280;24875;48.436;10.298;2022-08-03T00:32:41;96357.81;;;18.75;100.00
39141;BME280;24875;48.436;10.298;2022-08-03T00:35:08;96354.75;;;18.72;100.00
39141;BME280;24875;48.436;10.298;2022-08-03T00:37:34;96356.84;;;18.88;100.00
39141;BME280;24875;48.436;10.298;2022-08-03T00:40:01;96357.13;;;18.62;100.00
39141;BME280;24875;48.436;10.298;2022-08-03T00:42:27;96352.47;;;18.75;100.00
39141;BME280;24875;48.436;10.298;2022-08-03T00:44:54;96351.44;;;18.76;100.00
39141;BME280;24875;48.436;10.298;2022-08-03T00:47:20;96355.22;;;18.69;100.00
39141;BME280;24875;48.436;10.298;2022-08-03T00:49:48;96357.63;;;18.88;100.00
39141;BME280;24875;48.436;10.298;2022-08-03T00:52:15;96357.94;;;18.80;100.00
39141;BME280;24875;48.436;10.298;2022-08-03T00:54:41;96363.09;;;18.64;100.00
39141;BME280;24875;48.436;10.298;2022-08-03T00:57:08;96354.41;;;18.50;100.00
39141;BME280;24875;48.436;10.298;2022-08-03T00:59:35;96365.06;;;18.50;100.00
39141;BME280;24875;48.436;10.298;2022-08-03T01:02:02;96354.16;;;18.52;100.00
39141;BME280;24875;48.436;10.298;2022-08-03T01:04:29;96357.13;;;18.44;100.00
39141;BME280;24875;48.436;10.298;2022-08-03T01:07:03;96356.75;;;18.40;100.00
39141;BME280;24875;48.436;10.298;2022-08-03T01:09:39;96351.00;;;18.43;100.00
39141;BME280;24875;48.436;10.298;2022-08-03T01:12:16;96354.69;;;18.42;100.00
39141;BME280;24875;48.436;10.298;2022-08-03T01:14:50;96350.78;;;18.45;100.00
39141;BME280;24875;48.436;10.298;2022-08-03T01:17:24;96360.91;;;18.19;100.00
39141;BME280;24875;48.436;10.298;2022-08-03T01:19:55;96350.38;;;18.24;100.00
39141;BME280;24875;48.436;10.298;2022-08-03T01:22:55;96351.44;;;18.58;100.00
39141;BME280;24875;48.436;10.298;2022-08-03T01:25:33;96350.47;;;18.53;100.00
39141;BME280;24875;48.436;10.298;2022-08-03T01:28:19;96347.22;;;18.51;99.87
39141;BME280;24875;48.436;10.298;2022-08-03T01:30:52;96346.03;;;18.47;99.84
39141;BME280;24875;48.436;10.298;2022-08-03T01:33:23;96342.09;;;18.49;100.00
39141;BME280;24875;48.436;10.298;2022-08-03T01:35:54;96346.84;;;18.47;100.00
39141;BME280;24875;48.436;10.298;2022-08-03T01:38:26;96342.31;;;18.48;99.78
39141;BME280;24875;48.436;10.298;2022-08-03T01:40:55;96338.53;;;18.20;100.00
39141;BME280;24875;48.436;10.298;2022-08-03T01:43:25;96351.72;;;18.33;100.00
39141;BME280;24875;48.436;10.298;2022-08-03T01:45:55;96344.31;;;18.34;100.00
39141;BME280;24875;48.436;10.298;2022-08-03T01:48:22;96342.31;;;18.30;100.00
39141;BME280;24875;48.436;10.298;2022-08-03T01:50:50;96343.41;;;18.40;100.00
39141;BME280;24875;48.436;10.298;2022-08-03T01:53:18;96338.69;;;18.42;100.00
39141;BME280;24875;48.436;10.298;2022-08-03T01:55:48;96338.22;;;18.45;100.00
39141;BME280;24875;48.436;10.298;2022-08-03T01:58:18;96337.19;;;18.29;100.00
39141;BME280;24875;48.436;10.298;2022-08-03T02:00:48;96337.31;;;18.16;100.00
39141;BME280;24875;48.436;10.298;2022-08-03T02:03:17;96341.84;;;18.15;100.00
39141;BME280;24875;48.436;10.298;2022-08-03T02:05:46;96341.00;;;18.15;100.00
39141;BME280;24875;48.436;10.298;2022-08-03T02:08:14;96345.75;;;18.13;100.00
39141;BME280;24875;48.436;10.298;2022-08-03T02:10:43;96341.44;;;18.18;100.00
39141;BME280;24875;48.436;10.298;2022-08-03T02:13:12;96347.13;;;18.22;100.00
39141;BME280;24875;48.436;10.298;2022-08-03T02:15:40;96345.13;;;18.17;100.00
39141;BME280;24875;48.436;10.298;2022-08-03T02:18:09;96346.34;;;18.15;100.00
39141;BME280;24875;48.436;10.298;2022-08-03T02:20:40;96333.19;;;18.20;100.00
39141;BME280;24875;48.436;10.298;2022-08-03T02:23:07;96336.69;;;18.20;100.00
39141;BME280;24875;48.436;10.298;2022-08-03T02:25:37;96335.28;;;18.18;99.82
39141;BME280;24875;48.436;10.298;2022-08-03T02:28:07;96331.97;;;17.98;100.00
39141;BME280;24875;48.436;10.298;2022-08-03T02:30:37;96337.75;;;18.13;99.76
39141;BME280;24875;48.436;10.298;2022-08-03T02:33:07;96334.56;;;18.04;100.00
39141;BME280;24875;48.436;10.298;2022-08-03T02:35:37;96333.91;;;18.09;100.00
39141;BME280;24875;48.436;10.298;2022-08-03T02:38:06;96334.72;;;18.09;100.00
39141;BME280;24875;48.436;10.298;2022-08-03T02:40:33;96332.91;;;18.03;100.00
39141;BME280;24875;48.436;10.298;2022-08-03T02:43:03;96334.25;;;17.94;100.00
39141;BME280;24875;48.436;10.298;2022-08-03T02:45:31;96336.31;;;17.92;100.00
39141;BME280;24875;48.436;10.298;2022-08-03T02:48:03;96329.75;;;17.95;100.00
39141;BME280;24875;48.436;10.298;2022-08-03T02:50:32;96333.66;;;17.92;100.00
39141;BME280;24875;48.436;10.298;2022-08-03T02:53:02;96329.69;;;18.01;100.00
39141;BME280;24875;48.436;10.298;2022-08-03T02:55:29;96327.50;;;17.92;100.00
39141;BME280;24875;48.436;10.298;2022-08-03T02:57:59;96319.22;;;18.00;99.30
39141;BME280;24875;48.436;10.298;2022-08-03T03:00:26;96317.72;;;17.86;100.00
39141;BME280;24875;48.436;10.298;2022-08-03T03:02:53;96321.41;;;17.85;100.00
39141;BME280;24875;48.436;10.298;2022-08-03T03:05:21;96321.09;;;17.75;100.00
39141;BME280;24875;48.436;10.298;2022-08-03T03:07:48;96313.88;;;17.82;100.00
39141;BME280;24875;48.436;10.298;2022-08-03T03:10:16;96317.72;;;17.86;100.00
39141;BME280;24875;48.436;10.298;2022-08-03T03:12:43;96319.16;;;17.88;100.00
39141;BME280;24875;48.436;10.298;2022-08-03T03:15:10;96317.63;;;17.74;100.00
39141;BME280;24875;48.436;10.298;2022-08-03T03:17:38;96322.44;;;17.84;100.00
39141;BME280;24875;48.436;10.298;2022-08-03T03:20:06;96327.41;;;17.80;100.00
39141;BME280;24875;48.436;10.298;2022-08-03T03:22:34;96326.78;;;17.61;100.00
39141;BME280;24875;48.436;10.298;2022-08-03T03:25:01;96327.13;;;17.64;100.00
39141;BME280;24875;48.436;10.298;2022-08-03T03:27:30;96325.13;;;17.60;100.00
39141;BME280;24875;48.436;10.298;2022-08-03T03:29:57;96322.69;;;17.58;100.00
39141;BME280;24875;48.436;10.298;2022-08-03T03:32:25;96326.78;;;17.61;100.00
39141;BME280;24875;48.436;10.298;2022-08-03T03:34:52;96330.56;;;17.47;100.00
39141;BME280;24875;48.436;10.298;2022-08-03T03:37:19;96329.47;;;17.30;100.00
39141;BME280;24875;48.436;10.298;2022-08-03T03:39:45;96327.00;;;17.28;100.00
39141;BME280;24875;48.436;10.298;2022-08-03T03:42:12;96333.38;;;17.27;100.00
39141;BME280;24875;48.436;10.298;2022-08-03T03:44:40;96335.63;;;17.30;100.00
39141;BME280;24875;48.436;10.298;2022-08-03T03:47:06;96336.38;;;17.37;100.00
39141;BME280;24875;48.436;10.298;2022-08-03T03:49:33;96337.25;;;17.31;100.00
39141;BME280;24875;48.436;10.298;2022-08-03T03:52:00;96340.88;;;17.37;100.00
39141;BME280;24875;48.436;10.298;2022-08-03T03:54:38;96334.53;;;17.62;100.00
39141;BME280;24875;48.436;10.298;2022-08-03T03:57:04;96336.88;;;17.52;100.00
39141;BME280;24875;48.436;10.298;2022-08-03T03:59:31;96344.06;;;17.52;100.00
39141;BME280;24875;48.436;10.298;2022-08-03T04:01:59;96345.75;;;17.71;100.00
39141;BME280;24875;48.436;10.298;2022-08-03T04:04:25;96339.19;;;17.67;100.00
39141;BME280;24875;48.436;10.298;2022-08-03T04:07:09;96341.22;;;17.71;100.00
39141;BME280;24875;48.436;10.298;2022-08-03T04:09:54;96336.59;;;17.60;99.72
39141;BME280;24875;48.436;10.298;2022-08-03T04:12:38;96343.41;;;17.56;100.00
39141;BME280;24875;48.436;10.298;2022-08-03T04:15:07;96335.28;;;17.69;99.82
39141;BME280;24875;48.436;10.298;2022-08-03T04:17:35;96343.28;;;17.69;99.70
39141;BME280;24875;48.436;10.298;2022-08-03T04:20:03;96348.94;;;17.55;100.00
39141;BME280;24875;48.436;10.298;2022-08-03T04:22:30;96345.66;;;17.59;100.00
39141;BME280;24875;48.436;10.298;2022-08-03T04:25:00;96346.56;;;17.71;100.00
39141;BME280;24875;48.436;10.298;2022-08-03T04:27:31;96350.19;;;17.76;100.00
39141;BME280;24875;48.436;10.298;2022-08-03T04:30:01;96341.72;;;17.86;100.00
39141;BME280;24875;48.436;10.298;2022-08-03T04:32:29;96347.72;;;17.99;100.00
39141;BME280;24875;48.436;10.298;2022-08-03T04:34:57;96348.50;;;18.06;98.07
39141;BME280;24875;48.436;10.298;2022-08-03T04:37:30;96355.72;;;18.24;97.78
39141;BME280;24875;48.436;10.298;2022-08-03T04:40:00;96358.63;;;18.22;97.06
39141;BME280;24875;48.436;10.298;2022-08-03T04:42:28;96354.34;;;18.15;98.21
39141;BME280;24875;48.436;10.298;2022-08-03T04:44:56;96363.03;;;18.10;99.26
39141;BME280;24875;48.436;10.298;2022-08-03T04:47:24;96364.84;;;18.10;100.00
39141;BME280;24875;48.436;10.298;2022-08-03T04:49:51;96371.56;;;18.19;100.00
39141;BME280;24875;48.436;10.298;2022-08-03T04:52:19;96364.84;;;18.10;100.00
39141;BME280;24875;48.436;10.298;2022-08-03T04:54:46;96369.97;;;18.11;100.00
39141;BME280;24875;48.436;10.298;2022-08-03T04:57:13;96369.16;;;18.35;100.00
39141;BME280;24875;48.436;10.298;2022-08-03T04:59:40;96358.84;;;18.74;98.82
39141;BME280;24875;48.436;10.298;2022-08-03T05:02:06;96361.84;;;18.95;98.44
39141;BME280;24875;48.436;10.298;2022-08-03T05:04:33;96360.59;;;18.98;99.28
39141;BME280;24875;48.436;10.298;2022-08-03T05:07:00;96361.28;;;18.76;100.00
39141;BME280;24875;48.436;10.298;2022-08-03T05:09:28;96359.84;;;18.91;100.00
39141;BME280;24875;48.436;10.298;2022-08-03T05:11:54;96365.19;;;18.91;100.00
39141;BME280;24875;48.436;10.298;2022-08-03T05:14:21;96355.25;;;18.98;100.00
39141;BME280;24875;48.436;10.298;2022-08-03T05:16:48;96355.97;;;19.05;100.00
39141;BME280;24875;48.436;10.298;2022-08-03T05:19:14;96362.19;;;19.17;100.00
39141;BME280;24875;48.436;10.298;2022-08-03T05:21:41;96365.97;;;19.27;100.00
39141;BME280;24875;48.436;10.298;2022-08-03T05:24:07;96362.50;;;19.38;100.00
39141;BME280;24875;48.436;10.298;2022-08-03T05:26:35;96356.06;;;19.57;100.00
39141;BME280;24875;48.436;10.298;2022-08-03T05:29:02;96358.63;;;19.75;100.00
39141;BME280;24875;48.436;10.298;2022-08-03T05:31:28;96360.63;;;19.79;100.00
39141;BME280;24875;48.436;10.298;2022-08-03T05:33:56;96361.03;;;20.06;99.68
39141;BME280;24875;48.436;10.298;2022-08-03T05:36:22;96359.75;;;20.08;100.00
39141;BME280;24875;48.436;10.298;2022-08-03T05:38:49;96363.47;;;20.07;99.53
39141;BME280;24875;48.436;10.298;2022-08-03T05:41:15;96365.34;;;20.18;99.53
39141;BME280;24875;48.436;10.298;2022-08-03T05:43:43;96372.88;;;20.21;97.06
39141;BME280;24875;48.436;10.298;2022-08-03T05:46:10;96365.69;;;20.21;99.67
39141;BME280;24875;48.436;10.298;2022-08-03T05:48:36;96362.66;;;20.18;99.17
39141;BME280;24875;48.436;10.298;2022-08-03T05:51:03;96369.41;;;20.43;97.64
39141;BME280;24875;48.436;10.298;2022-08-03T05:53:32;96365.56;;;20.51;97.81
39141;BME280;24875;48.436;10.298;2022-08-03T05:55:58;96363.91;;;20.73;95.88
39141;BME280;24875;48.436;10.298;2022-08-03T05:58:25;96362.00;;;20.84;95.06
39141;BME280;24875;48.436;10.298;2022-08-03T06:00:53;96357.38;;;20.69;97.17
39141;BME280;24875;48.436;10.298;2022-08-03T06:03:19;96361.25;;;20.73;96.67
39141;BME280;24875;48.436;10.298;2022-08-03T06:05:46;96371.22;;;20.66;97.95
39141;BME280;24875;48.436;10.298;2022-08-03T06:08:12;96367.72;;;20.65;97.33
39141;BME280;24875;48.436;10.298;2022-08-03T06:10:39;96365.06;;;20.77;96.84
39141;BME280;24875;48.436;10.298;2022-08-03T06:13:05;96368.78;;;20.76;97.15
39141;BME280;24875;48.436;10.298;2022-08-03T06:15:32;96364.59;;;20.80;97.03
39141;BME280;24875;48.436;10.298;2022-08-03T06:18:00;96373.44;;;20.80;97.49
39141;BME280;24875;48.436;10.298;2022-08-03T06:20:27;96368.75;;;20.87;96.57
39141;BME280;24875;48.436;10.298;2022-08-03T06:22:54;96368.59;;;21.05;95.03
39141;BME280;24875;48.436;10.298;2022-08-03T06:25:21;96365.22;;;21.09;97.05
39141;BME280;24875;48.436;10.298;2022-08-03T06:27:47;96372.16;;;21.10;96.14
39141;BME280;24875;48.436;10.298;2022-08-03T06:30:14;96377.94;;;21.30;96.08
39141;BME280;24875;48.436;10.298;2022-08-03T06:32:41;96379.56;;;21.31;94.97
39141;BME280;24875;48.436;10.298;2022-08-03T06:35:09;96374.81;;;21.49;96.01
39141;BME280;24875;48.436;10.298;2022-08-03T06:37:42;96375.47;;;21.68;94.33
39141;BME280;24875;48.436;10.298;2022-08-03T06:40:10;96378.03;;;21.63;93.92
39141;BME280;24875;48.436;10.298;2022-08-03T06:42:37;96368.38;;;21.62;98.80
39141;BME280;24875;48.436;10.298;2022-08-03T06:45:05;96374.97;;;21.87;95.14
39141;BME280;24875;48.436;10.298;2022-08-03T06:47:33;96376.69;;;21.93;94.40
39141;BME280;24875;48.436;10.298;2022-08-03T06:49:59;96372.38;;;22.08;93.65
39141;BME280;24875;48.436;10.298;2022-08-03T06:52:27;96372.84;;;22.05;95.26
39141;BME280;24875;48.436;10.298;2022-08-03T06:54:54;96379.72;;;22.29;93.16
39141;BME280;24875;48.436;10.298;2022-08-03T06:57:20;96369.59;;;22.36;93.80
39141;BME280;24875;48.436;10.298;2022-08-03T06:59:47;96373.81;;;22.49;94.68
39141;BME280;24875;48.436;10.298;2022-08-03T07:02:13;96380.38;;;22.58;92.76
39141;BME280;24875;48.436;10.298;2022-08-03T07:04:40;96380.69;;;22.77;93.60
39141;BME280;24875;48.436;10.298;2022-08-03T07:07:06;96380.50;;;22.84;93.56
39141;BME280;24875;48.436;10.298;2022-08-03T07:09:34;96377.03;;;22.88;92.51
39141;BME280;24875;48.436;10.298;2022-08-03T07:12:01;96384.69;;;22.96;92.17
39141;BME280;24875;48.436;10.298;2022-08-03T07:14:28;96384.41;;;23.14;92.03
39141;BME280;24875;48.436;10.298;2022-08-03T07:16:54;96377.81;;;23.27;90.34
39141;BME280;24875;48.436;10.298;2022-08-03T07:19:21;96378.56;;;23.43;92.67
39141;BME280;24875;48.436;10.298;2022-08-03T07:21:47;96372.78;;;23.56;92.64
39141;BME280;24875;48.436;10.298;2022-08-03T07:24:14;96375.66;;;23.50;89.19
39141;BME280;24875;48.436;10.298;2022-08-03T07:26:42;96368.69;;;23.75;88.43
39141;BME280;24875;48.436;10.298;2022-08-03T07:29:08;96373.69;;;23.93;89.94
39141;BME280;24875;48.436;10.298;2022-08-03T07:31:35;96366.25;;;24.05;87.11
39141;BME280;24875;48.436;10.298;2022-08-03T07:34:01;96364.69;;;24.14;83.74
39141;BME280;24875;48.436;10.298;2022-08-03T07:36:27;96361.06;;;24.35;82.79
39141;BME280;24875;48.436;10.298;2022-08-03T07:38:54;96367.97;;;24.52;81.61
39141;BME280;24875;48.436;10.298;2022-08-03T07:41:22;96364.84;;;24.70;78.61
39141;BME280;24875;48.436;10.298;2022-08-03T07:43:50;96365.47;;;24.87;80.77
39141;BME280;24875;48.436;10.298;2022-08-03T07:46:16;96369.81;;;24.93;78.21
39141;BME280;24875;48.436;10.298;2022-08-03T07:48:43;96363.47;;;25.18;74.59
39141;BME280;24875;48.436;10.298;2022-08-03T07:51:09;96363.50;;;25.28;75.59
39141;BME280;24875;48.436;10.298;2022-08-03T07:53:36;96359.22;;;25.37;74.09
39141;BME280;24875;48.436;10.298;2022-08-03T07:56:02;96368.13;;;25.38;74.99
39141;BME280;24875;48.436;10.298;2022-08-03T07:58:29;96357.38;;;25.58;73.44
39141;BME280;24875;48.436;10.298;2022-08-03T08:00:57;96361.22;;;25.77;70.56
39141;BME280;24875;48.436;10.298;2022-08-03T08:03:23;96364.47;;;25.98;68.29
39141;BME280;24875;48.436;10.298;2022-08-03T08:05:50;96365.03;;;25.95;67.00
39141;BME280;24875;48.436;10.298;2022-08-03T08:08:17;96365.00;;;26.05;68.71
39141;BME280;24875;48.436;10.298;2022-08-03T08:10:44;96364.47;;;26.18;65.83
39141;BME280;24875;48.436;10.298;2022-08-03T08:13:11;96366.38;;;26.28;64.45
39141;BME280;24875;48.436;10.298;2022-08-03T08:15:37;96359.63;;;26.30;62.13
39141;BME280;24875;48.436;10.298;2022-08-03T08:18:05;96355.84;;;26.46;62.60
39141;BME280;24875;48.436;10.298;2022-08-03T08:20:33;96356.09;;;26.59;64.33
39141;BME280;24875;48.436;10.298;2022-08-03T08:23:03;96354.16;;;26.75;65.85
39141;BME280;24875;48.436;10.298;2022-08-03T08:25:30;96355.03;;;26.60;63.66
39141;BME280;24875;48.436;10.298;2022-08-03T08:27:57;96359.00;;;26.78;61.78
39141;BME280;24875;48.436;10.298;2022-08-03T08:30:26;96353.34;;;26.74;61.75
39141;BME280;24875;48.436;10.298;2022-08-03T08:32:52;96348.97;;;26.88;61.41
39141;BME280;24875;48.436;10.298;2022-08-03T08:35:20;96344.91;;;27.01;62.88
39141;BME280;24875;48.436;10.298;2022-08-03T08:37:47;96357.84;;;27.13;64.83
39141;BME280;24875;48.436;10.298;2022-08-03T08:40:13;96351.34;;;27.09;64.23
39141;BME280;24875;48.436;10.298;2022-08-03T08:42:40;96345.94;;;27.14;64.03
39141;BME280;24875;48.436;10.298;2022-08-03T08:45:08;96350.72;;;27.32;65.93
39141;BME280;24875;48.436;10.298;2022-08-03T08:47:37;96343.16;;;27.34;65.67
39141;BME280;24875;48.436;10.298;2022-08-03T08:50:08;96354.88;;;27.68;63.93
39141;BME280;24875;48.436;10.298;2022-08-03T08:52:39;96358.19;;;27.98;60.31
39141;BME280;24875;48.436;10.298;2022-08-03T08:55:08;96354.91;;;27.63;59.68
39141;BME280;24875;48.436;10.298;2022-08-03T08:57:36;96352.09;;;27.78;57.88
39141;BME280;24875;48.436;10.298;2022-08-03T09:00:05;96354.69;;;27.98;61.92
39141;BME280;24875;48.436;10.298;2022-08-03T09:02:33;96358.78;;;27.90;57.88
39141;BME280;24875;48.436;10.298;2022-08-03T09:05:00;96349.41;;;28.11;61.08
39141;BME280;24875;48.436;10.298;2022-08-03T09:07:27;96356.66;;;28.21;60.99
39141;BME280;24875;48.436;10.298;2022-08-03T09:09:55;96351.13;;;28.35;58.03
39141;BME280;24875;48.436;10.298;2022-08-03T09:12:22;96354.03;;;28.16;56.05
39141;BME280;24875;48.436;10.298;2022-08-03T09:14:48;96354.38;;;28.37;56.63
39141;BME280;24875;48.436;10.298;2022-08-03T09:17:15;96362.94;;;28.49;58.80
39141;BME280;24875;48.436;10.298;2022-08-03T09:19:42;96360.25;;;28.44;55.24
39141;BME280;24875;48.436;10.298;2022-08-03T09:22:10;96350.69;;;28.52;53.68
39141;BME280;24875;48.436;10.298;2022-08-03T09:24:37;96350.25;;;28.68;54.57
39141;BME280;24875;48.436;10.298;2022-08-03T09:27:10;96348.63;;;28.67;49.04
39141;BME280;24875;48.436;10.298;2022-08-03T09:29:38;96350.53;;;28.95;51.57
39141;BME280;24875;48.436;10.298;2022-08-03T09:32:04;96353.47;;;28.75;48.97
39141;BME280;24875;48.436;10.298;2022-08-03T09:34:31;96354.44;;;28.84;51.75
39141;BME280;24875;48.436;10.298;2022-08-03T09:36:57;96350.06;;;28.88;48.33
39141;BME280;24875;48.436;10.298;2022-08-03T09:39:26;96353.25;;;29.18;46.91
39141;BME280;24875;48.436;10.298;2022-08-03T09:42:08;96351.03;;;29.44;45.81
39141;BME280;24875;48.436;10.298;2022-08-03T09:44:36;96354.34;;;29.59;47.51
39141;BME280;24875;48.436;10.298;2022-08-03T09:47:03;96345.84;;;29.65;50.70
39141;BME280;24875;48.436;10.298;2022-08-03T09:49:30;96344.09;;;29.74;49.26
39141;BME280;24875;48.436;10.298;2022-08-03T09:52:00;96348.66;;;29.79;48.43
39141;BME280;24875;48.436;10.298;2022-08-03T09:54:29;96342.38;;;29.78;46.90
39141;BME280;24875;48.436;10.298;2022-08-03T09:56:57;96344.13;;;29.93;46.94
39141;BME280;24875;48.436;10.298;2022-08-03T09:59:26;96340.00;;;29.95;45.20
39141;BME280;24875;48.436;10.298;2022-08-03T10:01:53;96340.91;;;29.86;45.99
39141;BME280;24875;48.436;10.298;2022-08-03T10:04:21;96345.22;;;29.92;46.60
39141;BME280;24875;48.436;10.298;2022-08-03T10:07:02;96341.78;;;29.86;44.42
39141;BME280;24875;48.436;10.298;2022-08-03T10:09:28;96338.16;;;29.72;45.77
39141;BME280;24875;48.436;10.298;2022-08-03T10:11:55;96334.69;;;29.67;44.40
39141;BME280;24875;48.436;10.298;2022-08-03T10:14:25;96336.09;;;30.01;43.02
39141;BME280;24875;48.436;10.298;2022-08-03T10:16:55;96336.47;;;30.13;44.40
39141;BME280;24875;48.436;10.298;2022-08-03T10:19:22;96337.09;;;30.23;45.62
39141;BME280;24875;48.436;10.298;2022-08-03T10:21:54;96339.50;;;30.25;47.95
39141;BME280;24875;48.436;10.298;2022-08-03T10:24:24;96333.75;;;30.13;47.67
39141;BME280;24875;48.436;10.298;2022-08-03T10:26:52;96333.06;;;30.21;42.04
39141;BME280;24875;48.436;10.298;2022-08-03T10:29:25;96334.09;;;30.38;42.57
39141;BME280;24875;48.436;10.298;2022-08-03T10:31:55;96334.91;;;30.71;44.43
39141;BME280;24875;48.436;10.298;2022-08-03T10:34:25;96326.75;;;30.71;44.94
39141;BME280;24875;48.436;10.298;2022-08-03T10:36:55;96330.06;;;30.68;41.88
39141;BME280;24875;48.436;10.298;2022-08-03T10:39:27;96328.38;;;30.40;40.23
39141;BME280;24875;48.436;10.298;2022-08-03T10:41:55;96318.75;;;30.47;43.23
39141;BME280;24875;48.436;10.298;2022-08-03T10:44:29;96314.34;;;30.65;40.85
39141;BME280;24875;48.436;10.298;2022-08-03T10:46:58;96314.28;;;30.83;42.30
39141;BME280;24875;48.436;10.298;2022-08-03T10:49:25;96309.63;;;30.97;41.15
39141;BME280;24875;48.436;10.298;2022-08-03T10:51:52;96311.25;;;30.98;41.51
39141;BME280;24875;48.436;10.298;2022-08-03T10:54:38;96300.28;;;31.16;38.71
39141;BME280;24875;48.436;10.298;2022-08-03T10:57:43;96296.09;;;31.32;39.51
39141;BME280;24875;48.436;10.298;2022-08-03T11:00:12;96294.72;;;31.08;39.79
39141;BME280;24875;48.436;10.298;2022-08-03T11:03:01;96289.91;;;31.05;39.62
39141;BME280;24875;48.436;10.298;2022-08-03T11:05:29;96289.75;;;31.23;42.70
39141;BME280;24875;48.436;10.298;2022-08-03T11:08:22;96292.97;;;31.39;38.85
39141;BME280;24875;48.436;10.298;2022-08-03T11:10:50;96301.13;;;31.39;38.85
39141;BME280;24875;48.436;10.298;2022-08-03T11:13:19;96298.50;;;31.60;38.95
39141;BME280;24875;48.436;10.298;2022-08-03T11:15:51;96299.31;;;31.61;38.92
39141;BME280;24875;48.436;10.298;2022-08-03T11:18:18;96299.38;;;31.91;39.81
39141;BME280;24875;48.436;10.298;2022-08-03T11:20:49;96292.66;;;31.53;37.43
39141;BME280;24875;48.436;10.298;2022-08-03T11:23:19;96296.97;;;31.68;38.65
39141;BME280;24875;48.436;10.298;2022-08-03T11:26:14;96298.25;;;31.70;39.59
39141;BME280;24875;48.436;10.298;2022-08-03T11:28:42;96293.25;;;31.86;38.47
39141;BME280;24875;48.436;10.298;2022-08-03T11:34:23;96286.38;;;31.88;39.50
39141;BME280;24875;48.436;10.298;2022-08-03T11:37:18;96288.28;;;32.01;36.97
39141;BME280;24875;48.436;10.298;2022-08-03T11:39:46;96286.13;;;31.76;37.56
39141;BME280;24875;48.436;10.298;2022-08-03T11:42:38;96285.81;;;31.78;36.18
39141;BME280;24875;48.436;10.298;2022-08-03T11:45:07;96286.22;;;32.28;36.00
39141;BME280;24875;48.436;10.298;2022-08-03T11:47:37;96282.75;;;32.36;36.71
39141;BME280;24875;48.436;10.298;2022-08-03T11:50:07;96285.28;;;32.33;36.58
39141;BME280;24875;48.436;10.298;2022-08-03T11:52:35;96279.53;;;32.12;36.16
39141;BME280;24875;48.436;10.298;2022-08-03T11:55:07;96262.97;;;32.53;35.38
39141;BME280;24875;48.436;10.298;2022-08-03T11:57:35;96267.00;;;32.55;36.63
39141;BME280;24875;48.436;10.298;2022-08-03T12:00:06;96268.56;;;32.86;40.43
39141;BME280;24875;48.436;10.298;2022-08-03T12:02:53;96260.63;;;32.68;37.04
39141;BME280;24875;48.436;10.298;2022-08-03T12:05:32;96262.75;;;32.49;34.80
39141;BME280;24875;48.436;10.298;2022-08-03T12:07:58;96267.78;;;32.56;35.43
39141;BME280;24875;48.436;10.298;2022-08-03T12:10:25;96260.75;;;32.63;36.36
39141;BME280;24875;48.436;10.298;2022-08-03T12:12:54;96257.16;;;32.93;37.31
39141;BME280;24875;48.436;10.298;2022-08-03T12:15:24;96258.22;;;32.67;37.58
39141;BME280;24875;48.436;10.298;2022-08-03T12:17:51;96259.44;;;32.30;36.91
39141;BME280;24875;48.436;10.298;2022-08-03T12:20:22;96254.78;;;33.00;35.55
39141;BME280;24875;48.436;10.298;2022-08-03T12:22:49;96257.78;;;33.37;33.48
39141;BME280;24875;48.436;10.298;2022-08-03T12:25:20;96254.44;;;33.48;33.45
39141;BME280;24875;48.436;10.298;2022-08-03T12:27:47;96252.81;;;32.83;34.50
39141;BME280;24875;48.436;10.298;2022-08-03T12:30:13;96252.28;;;33.12;36.40
39141;BME280;24875;48.436;10.298;2022-08-03T12:32:41;96245.72;;;33.46;35.01
39141;BME280;24875;48.436;10.298;2022-08-03T12:35:08;96247.50;;;33.34;37.72
39141;BME280;24875;48.436;10.298;2022-08-03T12:37:36;96250.25;;;32.87;34.97
39141;BME280;24875;48.436;10.298;2022-08-03T12:40:04;96249.22;;;33.05;35.67
39141;BME280;24875;48.436;10.298;2022-08-03T12:42:31;96241.03;;;33.13;35.74
39141;BME280;24875;48.436;10.298;2022-08-03T12:44:58;96242.19;;;33.37;35.96
39141;BME280;24875;48.436;10.298;2022-08-03T12:47:24;96244.13;;;33.20;35.78
39141;BME280;24875;48.436;10.298;2022-08-03T12:49:52;96243.16;;;33.25;35.97
39141;BME280;24875;48.436;10.298;2022-08-03T12:52:19;96239.53;;;33.54;37.42
39141;BME280;24875;48.436;10.298;2022-08-03T12:54:55;96244.00;;;33.59;34.18
39141;BME280;24875;48.436;10.298;2022-08-03T12:57:22;96239.03;;;33.69;31.88